createdAt,value
2018-02-21T00:02:15.526Z,100615.41
2018-02-21T00:04:42.964Z,100617.14
2018-02-21T00:07:10.502Z,100622.98
2018-02-21T00:09:37.929Z,100627.88
2018-02-21T00:12:05.700Z,100638.42
2018-02-21T00:14:33.152Z,100636.50
2018-02-21T00:17:00.640Z,100636.91
2018-02-21T00:19:28.216Z,100645.18
2018-02-21T00:21:55.664Z,100643.76
2018-02-21T00:24:23.191Z,100653.17
2018-02-21T00:26:50.705Z,100647.44
2018-02-21T00:29:18.137Z,100655.77
2018-02-21T00:31:45.614Z,100647.37
2018-02-21T00:34:13.057Z,100654.87
2018-02-21T00:36:40.564Z,100655.91
2018-02-21T00:39:08.094Z,100656.39
2018-02-21T00:41:35.521Z,100662.07
2018-02-21T00:44:03.739Z,100661.09
2018-02-21T00:46:31.423Z,100657.69
2018-02-21T00:48:59.179Z,100668.53
2018-02-21T00:51:26.717Z,100657.39
2018-02-21T00:53:54.593Z,100668.33
2018-02-21T00:56:22.053Z,100670.83
2018-02-21T00:58:49.577Z,100666.88
2018-02-21T01:01:17.009Z,100674.89
2018-02-21T01:03:44.477Z,100670.66
2018-02-21T01:06:11.911Z,100679.77
2018-02-21T01:08:39.366Z,100677.41
2018-02-21T01:11:06.906Z,100676.30
2018-02-21T01:13:34.386Z,100682.00
2018-02-21T01:16:02.874Z,100681.83
2018-02-21T01:18:30.321Z,100677.05
2018-02-21T01:20:57.780Z,100666.81
2018-02-21T01:23:25.225Z,100663.23
2018-02-21T01:25:52.687Z,100660.75
2018-02-21T01:28:20.120Z,100666.43
2018-02-21T01:30:47.584Z,100667.78
2018-02-21T01:33:15.015Z,100676.48
2018-02-21T01:35:42.512Z,100675.91
2018-02-21T01:38:10.028Z,100680.01
2018-02-21T01:40:37.454Z,100689.53
2018-02-21T01:43:05.033Z,100690.16
2018-02-21T01:45:32.946Z,100691.41
2018-02-21T01:48:00.402Z,100699.77
2018-02-21T01:50:39.550Z,100707.41
2018-02-21T01:53:07.000Z,100708.73
2018-02-21T01:55:34.551Z,100714.82
2018-02-21T01:58:03.176Z,100718.50
2018-02-21T02:00:30.710Z,100719.72
2018-02-21T02:02:58.485Z,100713.89
2018-02-21T02:05:25.944Z,100719.41
2018-02-21T02:07:53.417Z,100712.13
2018-02-21T02:10:20.893Z,100721.46
2018-02-21T02:12:48.328Z,100723.11
2018-02-21T02:15:15.789Z,100720.68
2018-02-21T02:17:43.341Z,100721.77
2018-02-21T02:20:10.882Z,100720.99
2018-02-21T02:22:38.334Z,100729.23
2018-02-21T02:25:05.807Z,100728.86
2018-02-21T02:27:33.252Z,100724.23
2018-02-21T02:30:00.826Z,100720.70
2018-02-21T02:32:28.266Z,100722.11
2018-02-21T02:34:55.960Z,100712.25
2018-02-21T02:37:23.405Z,100713.27
2018-02-21T02:40:07.560Z,100714.50
2018-02-21T02:42:35.128Z,100713.31
2018-02-21T02:45:03.190Z,100716.35
2018-02-21T02:47:30.685Z,100711.71
2018-02-21T02:49:58.282Z,100718.05
2018-02-21T02:52:25.990Z,100718.08
2018-02-21T02:54:53.612Z,100719.27
2018-02-21T02:57:21.106Z,100718.58
2018-02-21T02:59:48.626Z,100713.03
2018-02-21T03:02:16.137Z,100725.45
2018-02-21T03:04:43.745Z,100722.63
2018-02-21T03:07:11.440Z,100730.83
2018-02-21T03:09:39.177Z,100729.78
2018-02-21T03:12:06.619Z,100724.87
2018-02-21T03:14:34.071Z,100727.05
2018-02-21T03:17:01.497Z,100726.02
2018-02-21T03:19:28.989Z,100726.69
2018-02-21T03:21:56.430Z,100726.03
2018-02-21T03:24:24.231Z,100726.97
2018-02-21T03:26:51.658Z,100723.98
2018-02-21T03:29:19.113Z,100723.87
2018-02-21T03:31:46.632Z,100725.06
2018-02-21T03:34:14.092Z,100723.55
2018-02-21T03:36:41.590Z,100718.63
2018-02-21T03:39:09.173Z,100721.84
2018-02-21T03:41:36.627Z,100723.05
2018-02-21T03:44:04.065Z,100719.70
2018-02-21T03:46:31.783Z,100726.05
2018-02-21T03:48:59.218Z,100717.88
2018-02-21T03:51:26.708Z,100719.80
2018-02-21T03:53:54.136Z,100721.80
2018-02-21T03:56:21.586Z,100727.53
2018-02-21T03:58:49.073Z,100730.18
2018-02-21T04:01:16.728Z,100740.23
2018-02-21T04:03:44.418Z,100737.77
2018-02-21T04:06:11.891Z,100743.78
2018-02-21T04:08:39.457Z,100751.22
2018-02-21T04:11:06.908Z,100755.17
2018-02-21T04:13:34.389Z,100757.64
2018-02-21T04:16:01.865Z,100763.04
2018-02-21T04:18:29.548Z,100762.47
2018-02-21T04:20:57.225Z,100760.65
2018-02-21T04:23:24.676Z,100755.86
2018-02-21T04:25:52.149Z,100754.73
2018-02-21T04:28:19.572Z,100750.39
2018-02-21T04:30:47.041Z,100751.42
2018-02-21T04:33:14.553Z,100745.55
2018-02-21T04:35:42.141Z,100744.89
2018-02-21T04:38:09.812Z,100751.12
2018-02-21T04:40:37.301Z,100745.77
2018-02-21T04:43:04.796Z,100740.86
2018-02-21T04:45:32.359Z,100733.42
2018-02-21T04:47:59.781Z,100731.09
2018-02-21T04:50:27.474Z,100730.57
2018-02-21T04:52:55.008Z,100726.86
2018-02-21T04:55:43.561Z,100723.66
2018-02-21T04:58:15.525Z,100713.48
2018-02-21T05:00:43.032Z,100713.31
2018-02-21T05:03:10.581Z,100715.01
2018-02-21T05:05:38.269Z,100720.01
2018-02-21T05:08:05.829Z,100725.12
2018-02-21T05:10:34.019Z,100719.64
2018-02-21T05:13:01.685Z,100715.73
2018-02-21T05:15:29.157Z,100715.41
2018-02-21T05:17:56.606Z,100715.70
2018-02-21T05:20:25.173Z,100717.66
2018-02-21T05:22:52.646Z,100717.31
2018-02-21T05:25:20.082Z,100714.31
2018-02-21T05:27:47.504Z,100711.75
2018-02-21T05:30:14.952Z,100712.23
2018-02-21T05:32:42.388Z,100710.53
2018-02-21T05:35:09.832Z,100713.66
2018-02-21T05:37:37.254Z,100712.84
2018-02-21T05:40:04.698Z,100711.54
2018-02-21T05:42:32.141Z,100720.31
2018-02-21T05:44:59.638Z,100728.56
2018-02-21T05:47:27.064Z,100721.91
2018-02-21T05:49:54.506Z,100722.34
2018-02-21T05:52:21.939Z,100722.17
2018-02-21T05:54:49.475Z,100723.16
2018-02-21T05:57:16.959Z,100729.47
2018-02-21T05:59:44.577Z,100732.41
2018-02-21T06:02:12.085Z,100734.88
2018-02-21T06:04:39.549Z,100740.53
2018-02-21T06:07:07.180Z,100731.17
2018-02-21T06:09:34.616Z,100734.70
2018-02-21T06:12:02.098Z,100747.84
2018-02-21T06:14:29.638Z,100746.02
2018-02-21T06:16:57.214Z,100749.14
2018-02-21T06:19:24.791Z,100745.13
2018-02-21T06:21:52.302Z,100733.53
2018-02-21T06:24:20.897Z,100742.25
2018-02-21T06:26:48.393Z,100744.25
2018-02-21T06:29:15.980Z,100741.53
2018-02-21T06:31:43.413Z,100743.31
2018-02-21T06:34:10.985Z,100741.80
2018-02-21T06:36:38.465Z,100738.77
2018-02-21T06:39:05.942Z,100744.69
2018-02-21T06:41:34.324Z,100743.67
2018-02-21T06:44:01.829Z,100742.86
2018-02-21T06:46:29.675Z,100738.97
2018-02-21T06:48:57.169Z,100731.55
2018-02-21T06:51:24.607Z,100733.06
2018-02-21T06:53:52.498Z,100734.60
2018-02-21T06:56:19.971Z,100741.73
2018-02-21T06:58:48.025Z,100740.62
2018-02-21T07:01:15.511Z,100747.05
2018-02-21T07:03:42.945Z,100751.66
2018-02-21T07:06:10.394Z,100753.72
2018-02-21T07:08:37.858Z,100749.20
2018-02-21T07:11:05.546Z,100749.58
2018-02-21T07:13:33.218Z,100752.63
2018-02-21T07:16:00.838Z,100753.71
2018-02-21T07:18:28.274Z,100761.25
2018-02-21T07:20:55.829Z,100772.20
2018-02-21T07:23:23.282Z,100768.59
2018-02-21T07:25:50.757Z,100774.89
2018-02-21T07:28:18.445Z,100782.06
2018-02-21T07:30:45.967Z,100778.86
2018-02-21T07:33:13.486Z,100772.75
2018-02-21T07:35:41.010Z,100773.06
2018-02-21T07:38:08.471Z,100771.08
2018-02-21T07:40:35.933Z,100776.83
2018-02-21T07:43:03.577Z,100783.31
2018-02-21T07:45:31.001Z,100783.20
2018-02-21T07:47:58.589Z,100777.81
2018-02-21T07:50:26.244Z,100786.72
2018-02-21T07:52:53.731Z,100793.00
2018-02-21T07:55:21.381Z,100795.91
2018-02-21T07:57:48.890Z,100793.45
2018-02-21T08:00:16.330Z,100794.53
2018-02-21T08:02:43.901Z,100796.66
2018-02-21T08:05:11.554Z,100799.52
2018-02-21T08:07:39.006Z,100802.50
2018-02-21T08:10:06.506Z,100800.86
2018-02-21T08:12:34.791Z,100797.46
2018-02-21T08:15:02.233Z,100808.19
2018-02-21T08:17:29.762Z,100811.97
2018-02-21T08:19:57.330Z,100811.45
2018-02-21T08:22:24.902Z,100813.03
2018-02-21T08:24:52.532Z,100817.98
2018-02-21T08:27:19.990Z,100816.89
2018-02-21T08:29:47.436Z,100821.54
2018-02-21T08:32:14.890Z,100818.25
2018-02-21T08:34:42.365Z,100819.20
2018-02-21T08:37:09.821Z,100813.17
2018-02-21T08:39:37.324Z,100812.77
2018-02-21T08:42:04.930Z,100812.47
2018-02-21T08:44:32.387Z,100818.64
2018-02-21T08:46:59.842Z,100816.90
2018-02-21T08:49:28.180Z,100816.53
2018-02-21T08:51:55.633Z,100816.47
2018-02-21T08:54:23.057Z,100818.48
2018-02-21T08:56:50.521Z,100812.09
2018-02-21T08:59:17.978Z,100819.90
2018-02-21T09:01:45.435Z,100822.16
2018-02-21T09:04:12.889Z,100824.69
2018-02-21T09:06:40.628Z,100823.03
2018-02-21T09:09:08.089Z,100828.12
2018-02-21T09:11:35.607Z,100826.53
2018-02-21T09:14:03.074Z,100826.67
2018-02-21T09:16:30.546Z,100830.56
2018-02-21T09:18:58.180Z,100831.77
2018-02-21T09:21:25.638Z,100839.31
2018-02-21T09:23:53.106Z,100832.86
2018-02-21T09:26:20.551Z,100835.76
2018-02-21T09:28:48.073Z,100840.94
2018-02-21T09:31:15.501Z,100835.64
2018-02-21T09:33:42.952Z,100834.98
2018-02-21T09:36:10.445Z,100837.98
2018-02-21T09:38:37.933Z,100833.23
2018-02-21T09:41:05.431Z,100830.16
2018-02-21T09:43:32.860Z,100833.70
2018-02-21T09:46:00.324Z,100823.45
2018-02-21T09:48:27.811Z,100824.83
2018-02-21T09:50:55.260Z,100830.28
2018-02-21T09:53:22.760Z,100827.61
2018-02-21T09:55:50.208Z,100816.19
2018-02-21T09:58:17.647Z,100813.38
2018-02-21T10:00:45.113Z,100807.30
2018-02-21T10:03:12.597Z,100802.16
2018-02-21T10:05:40.058Z,100803.73
2018-02-21T10:08:07.489Z,100797.85
2018-02-21T10:10:35.326Z,100796.81
2018-02-21T10:13:02.792Z,100798.06
2018-02-21T10:15:30.241Z,100799.34
2018-02-21T10:17:57.725Z,100807.91
2018-02-21T10:20:25.184Z,100799.55
2018-02-21T10:22:52.654Z,100805.12
2018-02-21T10:25:20.129Z,100805.69
2018-02-21T10:27:47.586Z,100797.44
2018-02-21T10:30:15.033Z,100796.11
2018-02-21T10:32:42.598Z,100783.86
2018-02-21T10:35:10.039Z,100789.02
2018-02-21T10:37:37.518Z,100784.41
2018-02-21T10:40:05.490Z,100774.97
2018-02-21T10:42:32.930Z,100778.66
2018-02-21T10:45:00.401Z,100779.06
2018-02-21T10:47:27.991Z,100765.86
2018-02-21T10:49:55.444Z,100775.82
2018-02-21T10:52:22.948Z,100774.25
2018-02-21T10:54:50.421Z,100772.58
2018-02-21T10:57:17.872Z,100764.41
2018-02-21T10:59:45.774Z,100760.31
2018-02-21T11:02:13.267Z,100754.81
2018-02-21T11:04:40.769Z,100760.30
2018-02-21T11:07:08.212Z,100766.94
2018-02-21T11:09:35.685Z,100762.97
2018-02-21T11:12:03.225Z,100756.44
2018-02-21T11:14:30.668Z,100759.28
2018-02-21T11:16:58.125Z,100745.05
2018-02-21T11:19:25.574Z,100744.47
2018-02-21T11:21:53.027Z,100745.45
2018-02-21T11:24:20.697Z,100751.52
2018-02-21T11:26:48.225Z,100746.64
2018-02-21T11:29:15.655Z,100743.17
2018-02-21T11:31:53.324Z,100732.69
2018-02-21T11:34:32.251Z,100736.87
2018-02-21T11:37:00.205Z,100740.11
2018-02-21T11:39:27.691Z,100738.28
2018-02-21T11:41:55.135Z,100739.60
2018-02-21T11:44:22.570Z,100736.29
2018-02-21T11:46:50.042Z,100735.57
2018-02-21T11:49:17.485Z,100738.07
2018-02-21T11:51:44.947Z,100741.91
2018-02-21T11:54:12.640Z,100733.69
2018-02-21T11:56:40.136Z,100727.98
2018-02-21T11:59:07.637Z,100725.73
2018-02-21T12:01:35.843Z,100723.22
2018-02-21T12:04:03.293Z,100727.88
2018-02-21T12:06:30.771Z,100720.86
2018-02-21T12:08:58.328Z,100714.52
2018-02-21T12:11:25.919Z,100713.16
2018-02-21T12:13:53.610Z,100719.35
2018-02-21T12:16:21.094Z,100711.97
2018-02-21T12:18:48.525Z,100706.71
2018-02-21T12:21:16.041Z,100703.37
2018-02-21T12:23:43.787Z,100696.77
2018-02-21T12:26:11.379Z,100695.98
2018-02-21T12:28:38.847Z,100695.89
2018-02-21T12:31:06.327Z,100690.44
2018-02-21T12:33:34.089Z,100689.87
2018-02-21T12:36:01.617Z,100684.77
2018-02-21T12:38:29.095Z,100676.05
2018-02-21T12:41:02.187Z,100677.92
2018-02-21T12:43:29.669Z,100671.64
2018-02-21T12:45:57.408Z,100677.00
2018-02-21T12:48:24.894Z,100664.94
2018-02-21T12:50:52.377Z,100664.64
2018-02-21T12:53:19.829Z,100663.30
2018-02-21T12:55:47.301Z,100652.84
2018-02-21T12:58:14.770Z,100644.72
2018-02-21T13:00:42.236Z,100645.12
2018-02-21T13:03:09.672Z,100636.72
2018-02-21T13:05:37.222Z,100633.56
2018-02-21T13:08:04.675Z,100633.11
2018-02-21T13:10:32.149Z,100628.13
2018-02-21T13:12:59.633Z,100630.27
2018-02-21T13:15:27.315Z,100624.63
2018-02-21T13:17:54.769Z,100625.71
2018-02-21T13:20:22.231Z,100622.70
2018-02-21T13:22:49.684Z,100624.19
2018-02-21T13:25:17.212Z,100625.08
2018-02-21T13:27:44.848Z,100612.12
2018-02-21T13:30:12.351Z,100614.54
2018-02-21T13:32:39.795Z,100606.69
2018-02-21T13:35:07.278Z,100608.70
2018-02-21T13:37:37.649Z,100604.88
2018-02-21T13:40:06.274Z,100606.45
2018-02-21T13:42:33.711Z,100597.77
2018-02-21T13:45:01.234Z,100598.45
2018-02-21T13:47:28.852Z,100588.86
2018-02-21T13:49:56.361Z,100586.69
2018-02-21T13:52:23.878Z,100588.17
2018-02-21T13:54:51.321Z,100595.37
2018-02-21T13:57:18.823Z,100590.28
2018-02-21T13:59:46.291Z,100584.25
2018-02-21T14:02:13.774Z,100580.63
2018-02-21T14:04:41.353Z,100575.28
2018-02-21T14:07:08.865Z,100576.09
2018-02-21T14:09:36.437Z,100571.76
2018-02-21T14:12:03.894Z,100567.74
2018-02-21T14:14:31.898Z,100563.54
2018-02-21T14:16:59.557Z,100565.38
2018-02-21T14:19:27.004Z,100558.32
2018-02-21T14:21:54.453Z,100565.33
2018-02-21T14:24:21.910Z,100563.32
2018-02-21T14:26:49.518Z,100567.71
2018-02-21T14:29:17.047Z,100566.03
2018-02-21T14:31:44.636Z,100559.97
2018-02-21T14:34:12.227Z,100563.25
2018-02-21T14:36:39.941Z,100560.75
2018-02-21T14:39:08.767Z,100552.97
2018-02-21T14:41:37.292Z,100554.94
2018-02-21T14:44:04.783Z,100562.34
2018-02-21T14:46:32.271Z,100563.38
2018-02-21T14:48:59.780Z,100561.91
2018-02-21T14:51:27.935Z,100566.05
2018-02-21T14:53:55.421Z,100565.20
2018-02-21T14:56:22.885Z,100560.71
2018-02-21T14:58:50.527Z,100570.91
2018-02-21T15:01:18.072Z,100569.86
2018-02-21T15:03:45.570Z,100570.24
2018-02-21T15:06:13.071Z,100567.77
2018-02-21T15:08:40.616Z,100568.80
2018-02-21T15:11:08.092Z,100571.34
2018-02-21T15:13:35.592Z,100575.69
2018-02-21T15:16:03.574Z,100576.82
2018-02-21T15:18:31.017Z,100580.78
2018-02-21T15:20:58.465Z,100572.58
2018-02-21T15:23:26.091Z,100578.36
2018-02-21T15:25:53.573Z,100573.42
2018-02-21T15:28:21.085Z,100586.92
2018-02-21T15:30:49.681Z,100581.06
2018-02-21T15:33:17.169Z,100577.50
2018-02-21T15:35:44.705Z,100578.50
2018-02-21T15:38:12.257Z,100583.03
2018-02-21T15:40:39.711Z,100583.86
2018-02-21T15:43:07.175Z,100587.90
2018-02-21T15:45:34.685Z,100590.28
2018-02-21T15:48:02.189Z,100582.69
2018-02-21T15:50:29.887Z,100586.16
2018-02-21T15:52:57.361Z,100583.84
2018-02-21T15:55:24.811Z,100587.93
2018-02-21T15:57:52.265Z,100590.73
2018-02-21T16:00:19.899Z,100587.88
2018-02-21T16:02:47.393Z,100582.87
2018-02-21T16:05:14.871Z,100590.03
2018-02-21T16:07:42.516Z,100590.94
2018-02-21T16:10:10.010Z,100600.78
2018-02-21T16:12:37.483Z,100598.80
2018-02-21T16:15:04.937Z,100601.62
2018-02-21T16:17:32.386Z,100591.89
2018-02-21T16:19:59.862Z,100599.40
2018-02-21T16:22:27.368Z,100595.62
2018-02-21T16:24:54.842Z,100599.23
2018-02-21T16:27:22.311Z,100596.75
2018-02-21T16:29:50.782Z,100598.05
2018-02-21T16:32:18.291Z,100605.38
2018-02-21T16:34:45.755Z,100606.45
2018-02-21T16:37:13.182Z,100600.95
2018-02-21T16:39:40.642Z,100605.78
2018-02-21T16:42:08.156Z,100613.66
2018-02-21T16:44:35.609Z,100616.69
2018-02-21T16:47:03.077Z,100620.20
2018-02-21T16:49:30.546Z,100617.06
2018-02-21T16:51:58.021Z,100618.88
2018-02-21T16:54:27.197Z,100620.64
2018-02-21T16:56:54.662Z,100628.27
2018-02-21T16:59:22.236Z,100630.30
2018-02-21T17:01:49.725Z,100627.06
2018-02-21T17:04:17.170Z,100628.20
2018-02-21T17:06:44.612Z,100633.53
2018-02-21T17:09:13.113Z,100635.25
2018-02-21T17:11:40.587Z,100635.63
2018-02-21T17:14:08.136Z,100640.45
2018-02-21T17:16:35.584Z,100638.95
2018-02-21T17:19:04.440Z,100643.93
2018-02-21T17:21:32.150Z,100637.59
2018-02-21T17:23:59.592Z,100642.97
2018-02-21T17:26:27.050Z,100643.28
2018-02-21T17:28:54.507Z,100651.80
2018-02-21T17:31:22.042Z,100651.34
2018-02-21T17:33:49.492Z,100657.73
2018-02-21T17:36:16.946Z,100665.06
2018-02-21T17:38:44.433Z,100664.31
2018-02-21T17:41:17.412Z,100670.38
2018-02-21T17:43:44.873Z,100671.55
2018-02-21T17:46:12.349Z,100670.66
2018-02-21T17:48:42.629Z,100676.14
2018-02-21T17:51:10.110Z,100675.19
2018-02-21T17:53:37.579Z,100684.60
2018-02-21T17:56:05.010Z,100690.31
2018-02-21T17:58:32.466Z,100686.19
2018-02-21T18:01:00.177Z,100690.31
2018-02-21T18:03:27.814Z,100699.44
2018-02-21T18:05:55.275Z,100695.59
2018-02-21T18:08:22.746Z,100694.22
2018-02-21T18:10:50.323Z,100700.33
2018-02-21T18:13:17.825Z,100696.43
2018-02-21T18:15:45.298Z,100698.66
2018-02-21T18:18:12.750Z,100695.79
2018-02-21T18:20:40.216Z,100702.75
2018-02-21T18:23:07.695Z,100701.84
2018-02-21T18:25:35.189Z,100704.00
2018-02-21T18:28:02.656Z,100708.59
2018-02-21T18:30:30.195Z,100703.78
2018-02-21T18:32:57.656Z,100705.67
2018-02-21T18:35:25.231Z,100707.41
2018-02-21T18:37:52.763Z,100703.53
2018-02-21T18:40:20.266Z,100714.75
2018-02-21T18:42:47.716Z,100713.30
2018-02-21T18:45:15.175Z,100716.20
2018-02-21T18:47:42.801Z,100720.64
2018-02-21T18:50:10.293Z,100719.40
2018-02-21T18:52:38.066Z,100723.81
2018-02-21T18:55:05.606Z,100716.59
2018-02-21T18:57:33.577Z,100720.04
2018-02-21T19:00:01.034Z,100717.78
2018-02-21T19:02:28.792Z,100719.53
2018-02-21T19:04:56.285Z,100718.17
2018-02-21T19:07:23.885Z,100723.95
2018-02-21T19:09:51.461Z,100722.30
2018-02-21T19:12:19.097Z,100721.38
2018-02-21T19:14:47.042Z,100723.52
2018-02-21T19:17:15.429Z,100728.47
2018-02-21T19:19:42.881Z,100723.02
2018-02-21T19:22:11.280Z,100720.62
2018-02-21T19:24:38.743Z,100723.25
2018-02-21T19:27:06.181Z,100730.55
2018-02-21T19:29:33.758Z,100738.14
2018-02-21T19:32:01.237Z,100733.53
2018-02-21T19:34:28.698Z,100738.33
2018-02-21T19:36:56.153Z,100739.56
2018-02-21T19:39:23.615Z,100743.31
2018-02-21T19:41:51.122Z,100738.08
2018-02-21T19:44:18.578Z,100739.84
2018-02-21T19:46:46.034Z,100740.33
2018-02-21T19:49:13.490Z,100742.57
2018-02-21T19:51:40.924Z,100739.45
2018-02-21T19:54:08.610Z,100744.16
2018-02-21T19:56:36.065Z,100742.45
2018-02-21T19:59:03.513Z,100753.54
2018-02-21T20:01:31.004Z,100740.59
2018-02-21T20:03:58.456Z,100745.55
2018-02-21T20:06:25.913Z,100743.76
2018-02-21T20:08:53.350Z,100749.19
2018-02-21T20:11:20.855Z,100745.64
2018-02-21T20:13:48.298Z,100754.42
2018-02-21T20:16:15.784Z,100750.67
2018-02-21T20:18:43.224Z,100760.89
2018-02-21T20:21:10.689Z,100771.52
2018-02-21T20:23:38.165Z,100770.11
2018-02-21T20:26:05.613Z,100772.95
2018-02-21T20:28:33.094Z,100766.75
2018-02-21T20:31:00.559Z,100767.23
2018-02-21T20:33:28.042Z,100774.68
2018-02-21T20:35:55.730Z,100777.14
2018-02-21T20:38:23.403Z,100773.50
2018-02-21T20:40:51.074Z,100773.80
2018-02-21T20:43:18.571Z,100775.19
2018-02-21T20:45:46.073Z,100771.63
2018-02-21T20:48:13.679Z,100774.06
2018-02-21T20:50:42.094Z,100775.70
2018-02-21T20:53:09.588Z,100779.19
2018-02-21T20:55:38.219Z,100781.84
2018-02-21T20:58:05.678Z,100786.02
2018-02-21T21:00:33.810Z,100790.32
2018-02-21T21:03:01.353Z,100786.16
2018-02-21T21:05:28.994Z,100789.93
2018-02-21T21:07:56.490Z,100784.71
2018-02-21T21:10:23.929Z,100785.70
2018-02-21T21:12:51.373Z,100787.91
2018-02-21T21:15:18.860Z,100779.30
2018-02-21T21:17:46.608Z,100781.38
2018-02-21T21:20:14.186Z,100781.70
2018-02-21T21:22:41.645Z,100781.16
2018-02-21T21:25:09.081Z,100776.56
2018-02-21T21:27:37.434Z,100776.47
2018-02-21T21:30:04.882Z,100778.02
2018-02-21T21:32:32.340Z,100776.13
2018-02-21T21:34:59.785Z,100770.20
2018-02-21T21:37:27.290Z,100775.38
2018-02-21T21:39:54.745Z,100772.17
2018-02-21T21:42:23.189Z,100769.42
2018-02-21T21:44:50.646Z,100772.92
2018-02-21T21:47:18.210Z,100773.58
2018-02-21T21:49:45.671Z,100767.05
2018-02-21T21:52:13.279Z,100766.95
2018-02-21T21:54:41.556Z,100768.17
2018-02-21T21:57:09.118Z,100761.54
2018-02-21T21:59:36.814Z,100769.65
2018-02-21T22:02:05.268Z,100766.92
2018-02-21T22:04:32.703Z,100762.47
2018-02-21T22:07:00.535Z,100768.20
2018-02-21T22:09:27.982Z,100763.28
2018-02-21T22:11:55.437Z,100762.23
2018-02-21T22:14:22.940Z,100759.73
2018-02-21T22:16:50.393Z,100752.44
2018-02-21T22:19:17.861Z,100760.02
2018-02-21T22:21:46.427Z,100757.41
2018-02-21T22:24:14.043Z,100753.69
2018-02-21T22:26:41.559Z,100753.94
2018-02-21T22:29:09.220Z,100750.33
2018-02-21T22:31:36.968Z,100753.95
2018-02-21T22:34:04.505Z,100752.37
2018-02-21T22:36:32.020Z,100751.12
2018-02-21T22:38:59.473Z,100751.38
2018-02-21T22:41:27.038Z,100749.55
2018-02-21T22:43:54.523Z,100745.69
2018-02-21T22:46:22.069Z,100751.77
2018-02-21T22:48:49.533Z,100748.52
2018-02-21T22:51:17.182Z,100746.94
2018-02-21T22:53:44.638Z,100747.22
2018-02-21T22:56:12.101Z,100747.23
2018-02-21T22:58:39.544Z,100746.27
2018-02-21T23:01:07.004Z,100748.77
2018-02-21T23:03:34.433Z,100755.33
2018-02-21T23:06:01.881Z,100740.98
2018-02-21T23:08:29.324Z,100741.83
2018-02-21T23:10:56.927Z,100740.15
2018-02-21T23:13:24.450Z,100734.63
2018-02-21T23:15:51.921Z,100733.00
2018-02-21T23:18:19.367Z,100739.44
2018-02-21T23:20:46.815Z,100732.83
2018-02-21T23:23:14.266Z,100734.52
2018-02-21T23:25:41.793Z,100734.34
2018-02-21T23:28:09.250Z,100728.52
2018-02-21T23:30:36.709Z,100731.22
2018-02-21T23:33:04.185Z,100728.61
2018-02-21T23:35:31.634Z,100729.95
2018-02-21T23:37:59.168Z,100727.22
2018-02-21T23:40:26.610Z,100727.57
2018-02-21T23:42:54.061Z,100724.97
2018-02-21T23:45:21.730Z,100724.56
2018-02-21T23:47:49.191Z,100718.58
2018-02-21T23:50:16.642Z,100723.13
2018-02-21T23:52:44.153Z,100718.88
2018-02-21T23:55:11.689Z,100719.18
2018-02-21T23:57:39.147Z,100714.14
